createdAt,value
2017-07-29T00:04:00.793Z,17.90
2017-07-29T00:09:04.040Z,18.00
2017-07-29T00:14:07.232Z,17.60
2017-07-29T00:19:10.433Z,17.80
2017-07-29T00:24:13.608Z,17.70
2017-07-29T00:29:16.802Z,17.60
2017-07-29T00:34:19.994Z,17.40
2017-07-29T00:39:23.943Z,17.50
2017-07-29T00:44:27.119Z,17.50
2017-07-29T00:49:31.070Z,17.40
2017-07-29T00:54:34.259Z,17.30
2017-07-29T00:59:37.471Z,17.30
2017-07-29T01:04:40.658Z,17.30
2017-07-29T01:09:44.644Z,17.40
2017-07-29T01:14:47.833Z,17.40
2017-07-29T01:19:51.031Z,17.70
2017-07-29T01:24:54.229Z,17.90
2017-07-29T01:29:57.447Z,17.90
2017-07-29T01:35:00.634Z,17.80
2017-07-29T01:40:04.582Z,17.90
2017-07-29T01:45:07.785Z,17.90
2017-07-29T01:50:10.947Z,18.00
2017-07-29T01:55:14.146Z,17.90
2017-07-29T02:00:17.364Z,17.80
2017-07-29T02:05:20.541Z,17.80
2017-07-29T02:10:23.718Z,17.80
2017-07-29T02:15:26.924Z,17.90
2017-07-29T02:20:30.117Z,17.50
2017-07-29T02:25:33.325Z,17.40
2017-07-29T02:30:36.505Z,17.10
2017-07-29T02:35:39.675Z,17.10
2017-07-29T02:40:42.847Z,17.30
2017-07-29T02:45:46.051Z,17.40
2017-07-29T02:50:49.989Z,17.30
2017-07-29T02:55:53.202Z,17.20
2017-07-29T03:00:56.401Z,17.50
2017-07-29T03:05:59.581Z,17.50
2017-07-29T03:11:03.522Z,17.40
2017-07-29T03:16:06.845Z,17.40
2017-07-29T03:21:10.057Z,17.50
2017-07-29T03:26:13.265Z,17.40
2017-07-29T03:31:16.441Z,17.40
2017-07-29T03:36:20.405Z,17.20
2017-07-29T03:41:23.577Z,17.20
2017-07-29T03:46:26.769Z,17.20
2017-07-29T03:51:29.945Z,17.00
2017-07-29T03:56:33.116Z,17.10
2017-07-29T04:01:36.398Z,17.40
2017-07-29T04:06:40.350Z,17.40
2017-07-29T04:11:43.497Z,17.40
2017-07-29T04:16:46.700Z,17.50
2017-07-29T04:21:49.896Z,17.40
2017-07-29T04:26:53.203Z,17.30
2017-07-29T04:31:56.401Z,17.50
2017-07-29T04:36:59.585Z,17.50
2017-07-29T04:42:02.778Z,17.70
2017-07-29T04:47:06.737Z,17.80
2017-07-29T04:52:10.000Z,17.80
2017-07-29T04:57:13.959Z,17.90
2017-07-29T05:02:17.165Z,17.80
2017-07-29T05:07:20.360Z,17.90
2017-07-29T05:12:23.524Z,17.90
2017-07-29T05:17:26.718Z,17.90
2017-07-29T05:22:29.920Z,18.10
2017-07-29T05:27:33.112Z,18.10
2017-07-29T05:32:36.332Z,18.00
2017-07-29T05:37:39.550Z,18.40
2017-07-29T05:42:42.749Z,18.40
2017-07-29T05:47:45.933Z,18.40
2017-07-29T05:52:49.147Z,18.60
2017-07-29T05:57:52.350Z,18.50
2017-07-29T06:02:55.550Z,18.60
2017-07-29T06:07:58.751Z,18.70
2017-07-29T06:13:01.996Z,18.90
2017-07-29T06:18:05.184Z,19.00
2017-07-29T06:23:08.375Z,19.10
2017-07-29T06:28:11.542Z,19.30
2017-07-29T06:33:15.516Z,19.50
2017-07-29T06:38:18.707Z,19.40
2017-07-29T06:43:21.918Z,19.50
2017-07-29T06:48:25.252Z,19.70
2017-07-29T06:53:28.579Z,19.90
2017-07-29T06:58:31.766Z,20.00
2017-07-29T07:03:35.210Z,20.10
2017-07-29T07:08:38.453Z,20.20
2017-07-29T07:13:42.398Z,20.80
2017-07-29T07:18:45.593Z,20.70
2017-07-29T07:23:48.805Z,21.10
2017-07-29T07:28:52.018Z,21.50
2017-07-29T07:33:55.226Z,23.60
2017-07-29T07:38:58.433Z,24.10
2017-07-29T07:44:01.640Z,25.50
2017-07-29T07:49:04.815Z,25.90
2017-07-29T07:54:08.783Z,25.00
2017-07-29T07:59:12.066Z,24.90
2017-07-29T08:04:15.271Z,24.60
2017-07-29T08:09:18.475Z,25.30
2017-07-29T08:14:21.668Z,25.50
2017-07-29T08:19:25.649Z,25.70
2017-07-29T08:24:28.876Z,25.70
2017-07-29T08:29:32.023Z,25.80
2017-07-29T08:34:35.244Z,26.30
2017-07-29T08:39:38.442Z,26.20
2017-07-29T08:44:41.803Z,26.10
2017-07-29T08:49:45.128Z,25.90
2017-07-29T08:54:48.311Z,26.00
2017-07-29T08:59:51.566Z,27.00
2017-07-29T09:04:55.516Z,25.30
2017-07-29T09:09:58.751Z,25.20
2017-07-29T09:15:01.917Z,25.90
2017-07-29T09:20:05.116Z,26.10
2017-07-29T09:25:08.328Z,26.20
2017-07-29T09:30:11.517Z,26.10
2017-07-29T09:35:14.711Z,25.90
2017-07-29T09:40:17.917Z,25.90
2017-07-29T09:45:21.099Z,26.00
2017-07-29T09:50:24.287Z,26.30
2017-07-29T09:55:27.495Z,25.80
2017-07-29T10:00:30.720Z,25.30
2017-07-29T10:05:33.971Z,24.90
2017-07-29T10:10:37.937Z,25.80
2017-07-29T10:15:41.264Z,25.80
2017-07-29T10:20:44.584Z,25.70
2017-07-29T10:25:47.729Z,25.60
2017-07-29T10:30:50.946Z,25.20
2017-07-29T10:35:54.134Z,25.70
2017-07-29T10:40:57.336Z,26.30
2017-07-29T10:46:01.290Z,26.60
2017-07-29T10:51:04.493Z,26.50
2017-07-29T10:56:07.685Z,26.90
2017-07-29T11:01:10.912Z,26.90
2017-07-29T11:06:14.138Z,26.80
2017-07-29T11:11:17.337Z,27.00
2017-07-29T11:16:20.544Z,26.90
2017-07-29T11:21:23.741Z,26.60
2017-07-29T11:26:26.954Z,26.50
2017-07-29T11:31:30.291Z,27.00
2017-07-29T11:36:33.623Z,27.00
2017-07-29T11:41:37.601Z,27.30
2017-07-29T11:46:40.925Z,27.30
2017-07-29T11:51:44.182Z,27.20
2017-07-29T11:56:48.141Z,28.00
2017-07-29T12:01:51.332Z,28.00
2017-07-29T12:06:54.513Z,27.80
2017-07-29T12:11:58.521Z,27.70
2017-07-29T12:17:01.733Z,27.60
2017-07-29T12:22:05.703Z,28.00
2017-07-29T12:27:08.879Z,28.00
2017-07-29T12:32:12.891Z,28.60
2017-07-29T12:37:16.045Z,28.60
2017-07-29T12:42:19.281Z,28.90
2017-07-29T12:47:22.484Z,28.90
2017-07-29T12:52:25.685Z,29.00
2017-07-29T12:57:29.118Z,29.30
2017-07-29T13:02:32.312Z,28.90
2017-07-29T13:07:35.520Z,29.40
2017-07-29T13:12:38.726Z,28.70
2017-07-29T13:17:41.931Z,28.40
2017-07-29T13:22:45.098Z,28.30
2017-07-29T13:27:48.327Z,28.50
2017-07-29T13:32:51.530Z,28.60
2017-07-29T13:37:54.864Z,28.30
2017-07-29T13:42:58.046Z,28.40
2017-07-29T13:48:01.219Z,28.50
2017-07-29T13:53:04.420Z,28.50
2017-07-29T13:58:07.648Z,28.70
2017-07-29T14:03:10.858Z,28.20
2017-07-29T14:08:14.044Z,28.30
2017-07-29T14:13:17.995Z,28.20
2017-07-29T14:18:21.186Z,28.20
2017-07-29T14:23:24.385Z,28.00
2017-07-29T14:28:27.596Z,28.00
2017-07-29T14:33:30.806Z,28.10
2017-07-29T14:38:33.996Z,27.80
2017-07-29T14:43:37.984Z,28.20
2017-07-29T14:48:41.202Z,28.20
2017-07-29T14:53:44.369Z,28.70
2017-07-29T14:58:47.578Z,28.80
2017-07-29T15:03:50.800Z,28.70
2017-07-29T15:08:53.998Z,28.50
2017-07-29T15:13:57.174Z,28.90
2017-07-29T15:19:00.395Z,28.70
2017-07-29T15:24:03.589Z,28.60
2017-07-29T15:29:06.795Z,28.70
2017-07-29T15:34:10.034Z,28.40
2017-07-29T15:39:13.234Z,28.40
2017-07-29T15:44:16.431Z,28.70
2017-07-29T15:49:19.582Z,28.60
2017-07-29T15:54:22.763Z,28.60
2017-07-29T15:59:25.948Z,28.70
2017-07-29T16:04:29.233Z,28.60
2017-07-29T16:09:33.432Z,28.70
2017-07-29T16:14:36.630Z,28.70
2017-07-29T16:19:39.855Z,28.90
2017-07-29T16:24:43.058Z,28.70
2017-07-29T16:29:47.044Z,28.50
2017-07-29T16:34:50.224Z,28.40
2017-07-29T16:39:53.421Z,28.30
2017-07-29T16:44:57.390Z,28.30
2017-07-29T16:50:00.543Z,28.30
2017-07-29T16:55:04.531Z,27.90
2017-07-29T17:00:07.768Z,27.90
2017-07-29T17:05:11.733Z,28.10
2017-07-29T17:10:14.918Z,28.10
2017-07-29T17:15:18.137Z,28.10
2017-07-29T17:20:22.162Z,28.10
2017-07-29T17:25:25.351Z,27.90
2017-07-29T17:30:29.433Z,27.60
2017-07-29T17:35:32.648Z,27.50
2017-07-29T17:40:35.846Z,27.50
2017-07-29T17:45:39.065Z,27.30
2017-07-29T17:50:42.277Z,27.30
2017-07-29T17:55:45.496Z,27.30
2017-07-29T18:00:48.653Z,27.30
2017-07-29T18:05:51.855Z,27.50
2017-07-29T18:10:55.054Z,27.00
2017-07-29T18:15:58.279Z,26.90
2017-07-29T18:21:01.482Z,26.80
2017-07-29T18:26:04.678Z,26.80
2017-07-29T18:31:07.882Z,26.70
2017-07-29T18:36:11.144Z,26.50
2017-07-29T18:41:14.363Z,26.40
2017-07-29T18:46:17.595Z,26.30
2017-07-29T18:51:20.781Z,26.20
2017-07-29T18:56:24.791Z,26.00
2017-07-29T19:01:28.296Z,26.00
2017-07-29T19:06:31.478Z,25.80
2017-07-29T19:11:34.708Z,25.40
2017-07-29T19:16:37.945Z,25.00
2017-07-29T19:21:41.988Z,24.10
2017-07-29T19:26:45.955Z,23.60
2017-07-29T19:31:49.163Z,23.60
2017-07-29T19:36:52.353Z,23.30
2017-07-29T19:41:55.690Z,23.20
2017-07-29T19:46:58.946Z,23.20
2017-07-29T19:52:02.146Z,22.90
2017-07-29T19:57:05.359Z,23.00
2017-07-29T20:02:08.662Z,22.80
2017-07-29T20:07:12.666Z,22.50
2017-07-29T20:12:16.632Z,22.40
2017-07-29T20:17:19.856Z,22.30
2017-07-29T20:22:23.127Z,22.20
2017-07-29T20:27:27.301Z,21.70
2017-07-29T20:32:30.501Z,21.70
2017-07-29T20:37:33.708Z,21.80
2017-07-29T20:42:36.885Z,21.80
2017-07-29T20:47:40.080Z,21.90
2017-07-29T20:52:44.103Z,21.70
2017-07-29T20:57:48.030Z,21.60
2017-07-29T21:02:51.234Z,21.50
2017-07-29T21:07:55.217Z,21.30
2017-07-29T21:12:58.396Z,21.30
2017-07-29T21:18:01.762Z,21.40
2017-07-29T21:23:05.720Z,21.30
2017-07-29T21:28:08.875Z,21.30
2017-07-29T21:33:12.130Z,21.20
2017-07-29T21:38:15.300Z,21.20
2017-07-29T21:43:19.270Z,21.00
2017-07-29T21:48:22.442Z,20.90
2017-07-29T21:53:26.434Z,21.00
2017-07-29T21:58:29.639Z,21.00
2017-07-29T22:03:32.922Z,20.90
2017-07-29T22:08:36.145Z,20.80
2017-07-29T22:13:39.428Z,20.70
2017-07-29T22:18:42.627Z,20.60
2017-07-29T22:23:45.828Z,20.70
2017-07-29T22:28:49.764Z,20.60
2017-07-29T22:33:52.973Z,20.60
2017-07-29T22:38:56.172Z,20.60
2017-07-29T22:43:59.393Z,20.40
2017-07-29T22:49:02.589Z,20.30
2017-07-29T22:54:05.801Z,20.40
2017-07-29T22:59:08.961Z,20.50
2017-07-29T23:04:12.158Z,20.50
2017-07-29T23:09:15.390Z,20.50
2017-07-29T23:14:19.267Z,20.00
2017-07-29T23:19:22.483Z,20.00
2017-07-29T23:24:25.688Z,20.00
2017-07-29T23:29:29.005Z,19.90
2017-07-29T23:34:32.206Z,19.90
2017-07-29T23:39:35.572Z,19.80
2017-07-29T23:44:39.510Z,19.70
2017-07-29T23:49:42.700Z,19.60
2017-07-29T23:54:45.889Z,19.70
2017-07-29T23:59:49.836Z,19.60
